createdAt,value
2023-02-17T00:03:49.582Z,10.12
2023-02-17T00:13:50.861Z,10.09
2023-02-17T00:23:52.100Z,10.11
2023-02-17T00:33:53.554Z,10.20
2023-02-17T00:43:54.859Z,10.01
2023-02-17T00:53:56.144Z,10.16
2023-02-17T01:03:57.390Z,10.23
2023-02-17T01:13:58.671Z,10.37
2023-02-17T01:23:59.924Z,10.57
2023-02-17T01:34:01.405Z,10.61
2023-02-17T01:44:02.634Z,10.43
2023-02-17T01:54:03.852Z,10.48
2023-02-17T02:04:05.079Z,10.37
2023-02-17T02:14:06.818Z,10.26
2023-02-17T02:24:08.151Z,10.11
2023-02-17T02:34:09.592Z,10.09
2023-02-17T02:44:10.846Z,10.32
2023-02-17T02:54:12.154Z,10.11
2023-02-17T03:04:13.439Z,9.89
2023-02-17T03:14:14.752Z,9.74
2023-02-17T03:24:15.985Z,9.64
2023-02-17T03:34:17.501Z,9.49
2023-02-17T03:44:18.758Z,9.73
2023-02-17T03:54:20.053Z,9.68
2023-02-17T04:04:21.284Z,9.53
2023-02-17T04:14:22.528Z,9.38
2023-02-17T04:24:23.812Z,9.33
2023-02-17T04:34:25.040Z,9.36
2023-02-17T04:44:26.316Z,9.32
2023-02-17T04:54:27.621Z,9.37
2023-02-17T05:04:28.875Z,9.31
2023-02-17T05:14:30.114Z,9.23
2023-02-17T05:24:31.345Z,9.27
2023-02-17T05:34:32.710Z,9.19
2023-02-17T05:44:33.974Z,9.18
2023-02-17T05:54:35.210Z,9.29
2023-02-17T06:04:36.612Z,9.44
2023-02-17T06:14:37.922Z,9.40
2023-02-17T06:24:39.193Z,9.38
2023-02-17T06:34:40.556Z,9.42
2023-02-17T06:44:41.766Z,9.46
2023-02-17T06:54:43.035Z,9.47
2023-02-17T07:04:44.333Z,9.58
2023-02-17T07:14:45.555Z,9.66
2023-02-17T07:24:46.834Z,9.71
2023-02-17T07:34:48.224Z,9.77
2023-02-17T07:44:49.442Z,9.76
2023-02-17T07:54:50.698Z,9.78
2023-02-17T08:04:52.486Z,9.84
2023-02-17T08:14:53.712Z,9.87
2023-02-17T08:24:54.957Z,9.78
2023-02-17T08:34:56.768Z,9.85
2023-02-17T08:44:58.000Z,9.87
2023-02-17T08:54:59.252Z,9.86
2023-02-17T09:05:00.600Z,9.83
2023-02-17T09:15:01.851Z,9.74
2023-02-17T09:25:03.150Z,9.56
2023-02-17T09:35:06.072Z,9.55
2023-02-17T09:45:08.389Z,9.61
2023-02-17T09:55:09.674Z,9.78
2023-02-17T10:05:11.064Z,9.91
2023-02-17T10:15:15.628Z,10.11
2023-02-17T10:25:19.681Z,10.26
2023-02-17T10:35:21.015Z,10.55
2023-02-17T10:45:22.348Z,10.88
2023-02-17T10:55:24.108Z,11.04
2023-02-17T11:05:25.366Z,11.18
2023-02-17T11:15:26.637Z,11.54
2023-02-17T11:25:27.850Z,11.52
2023-02-17T11:35:29.916Z,11.65
2023-02-17T11:45:31.201Z,12.00
2023-02-17T11:55:32.429Z,12.18
2023-02-17T12:05:33.651Z,12.13
2023-02-17T12:15:34.861Z,12.36
2023-02-17T12:25:36.063Z,12.28
2023-02-17T12:35:37.450Z,12.26
2023-02-17T12:45:38.783Z,12.42
2023-02-17T12:55:40.037Z,12.31
2023-02-17T13:05:41.257Z,12.28
2023-02-17T13:15:43.037Z,12.28
2023-02-17T13:25:44.358Z,12.19
2023-02-17T13:35:46.386Z,12.13
2023-02-17T13:45:47.610Z,12.21
2023-02-17T13:55:48.797Z,12.39
2023-02-17T14:05:50.064Z,12.44
2023-02-17T14:15:51.707Z,12.52
2023-02-17T14:25:52.996Z,12.74
2023-02-17T14:35:54.322Z,12.53
2023-02-17T14:45:55.622Z,12.40
2023-02-17T14:55:56.874Z,12.43
2023-02-17T15:05:58.123Z,12.42
2023-02-17T15:15:59.452Z,12.32
2023-02-17T15:26:00.962Z,12.29
2023-02-17T15:36:02.549Z,12.20
2023-02-17T15:46:03.820Z,12.22
2023-02-17T15:56:05.383Z,12.11
2023-02-17T16:06:07.148Z,11.98
2023-02-17T16:16:08.885Z,12.02
2023-02-17T16:26:10.307Z,11.93
2023-02-17T16:36:11.631Z,11.89
2023-02-17T16:46:12.874Z,11.81
2023-02-17T16:56:14.144Z,11.81
2023-02-17T17:06:15.358Z,11.75
2023-02-17T17:16:16.568Z,11.69
2023-02-17T17:26:17.893Z,11.76
2023-02-17T17:36:19.299Z,11.62
2023-02-17T17:46:20.649Z,11.52
2023-02-17T17:56:21.915Z,11.56
2023-02-17T18:06:23.129Z,11.46
2023-02-17T18:16:24.376Z,11.51
2023-02-17T18:26:25.632Z,11.47
2023-02-17T18:36:27.197Z,11.39
2023-02-17T18:46:28.536Z,11.32
2023-02-17T18:56:29.813Z,11.25
2023-02-17T19:06:32.946Z,11.24
2023-02-17T19:16:35.676Z,11.13
2023-02-17T19:26:36.982Z,11.14
2023-02-17T19:36:38.462Z,11.20
2023-02-17T19:46:39.765Z,11.20
2023-02-17T19:56:41.056Z,11.21
2023-02-17T20:06:42.318Z,11.18
2023-02-17T20:16:43.748Z,11.12
2023-02-17T20:26:44.960Z,11.18
2023-02-17T20:36:49.063Z,11.24
2023-02-17T20:46:50.449Z,11.30
2023-02-17T20:56:52.192Z,11.34
2023-02-17T21:06:53.526Z,11.36
2023-02-17T21:17:18.640Z,11.46
2023-02-17T21:27:19.860Z,11.42
2023-02-17T21:37:21.248Z,11.47
2023-02-17T21:47:22.503Z,11.55
2023-02-17T21:57:23.733Z,11.53
2023-02-17T22:07:24.944Z,11.57
2023-02-17T22:17:26.286Z,11.57
2023-02-17T22:27:27.525Z,11.76
2023-02-17T22:37:28.774Z,11.66
2023-02-17T22:47:30.075Z,11.70
2023-02-17T22:57:31.353Z,11.73
2023-02-17T23:07:32.570Z,11.70
2023-02-17T23:17:53.758Z,11.66
2023-02-17T23:27:55.033Z,11.65
2023-02-17T23:37:56.359Z,11.52
2023-02-17T23:47:57.560Z,11.55
2023-02-17T23:58:01.229Z,11.70
